createdAt,value
2022-08-19T00:04:24.371Z,21.90
2022-08-19T00:06:52.951Z,20.15
2022-08-19T00:09:24.429Z,22.13
2022-08-19T00:11:56.660Z,21.13
2022-08-19T00:14:27.973Z,22.05
2022-08-19T00:16:56.841Z,21.48
2022-08-19T00:19:26.246Z,23.83
2022-08-19T00:21:55.420Z,23.45
2022-08-19T00:24:23.653Z,20.95
2022-08-19T00:26:53.814Z,20.27
2022-08-19T00:29:22.876Z,23.58
2022-08-19T00:31:53.967Z,20.65
2022-08-19T00:34:22.807Z,24.73
2022-08-19T00:36:51.063Z,23.90
2022-08-19T00:39:19.781Z,23.48
2022-08-19T00:41:50.067Z,23.45
2022-08-19T00:44:26.716Z,23.63
2022-08-19T00:46:58.483Z,23.80
2022-08-19T00:49:31.955Z,21.50
2022-08-19T00:52:04.067Z,25.88
2022-08-19T00:54:34.069Z,26.13
2022-08-19T00:57:07.137Z,26.35
2022-08-19T01:00:00.724Z,23.30
2022-08-19T01:02:27.902Z,25.00
2022-08-19T01:04:56.193Z,21.17
2022-08-19T01:07:24.439Z,23.52
2022-08-19T01:09:52.746Z,23.00
2022-08-19T01:12:20.763Z,22.27
2022-08-19T01:14:50.557Z,22.35
2022-08-19T01:17:18.949Z,24.58
2022-08-19T01:19:49.120Z,24.00
2022-08-19T01:22:34.677Z,23.90
2022-08-19T01:25:03.645Z,26.25
2022-08-19T01:27:43.108Z,26.08
2022-08-19T01:30:14.963Z,22.42
2022-08-19T01:32:44.237Z,26.02
2022-08-19T01:35:14.163Z,23.50
2022-08-19T01:37:48.864Z,23.38
2022-08-19T01:40:17.334Z,24.85
2022-08-19T01:42:45.591Z,22.98
2022-08-19T01:45:13.750Z,23.35
2022-08-19T01:47:42.102Z,23.70
2022-08-19T01:50:12.287Z,22.52
2022-08-19T01:52:40.616Z,24.40
2022-08-19T01:55:13.346Z,23.63
2022-08-19T01:57:43.243Z,23.10
2022-08-19T02:00:17.440Z,24.42
2022-08-19T02:02:45.781Z,24.80
2022-08-19T02:05:21.469Z,24.25
2022-08-19T02:07:50.014Z,22.55
2022-08-19T02:10:23.101Z,23.40
2022-08-19T02:12:52.077Z,25.02
2022-08-19T02:15:21.110Z,23.55
2022-08-19T02:17:49.873Z,23.02
2022-08-19T02:20:18.556Z,26.85
2022-08-19T02:22:46.807Z,28.23
2022-08-19T02:25:16.722Z,25.80
2022-08-19T02:27:45.900Z,27.10
2022-08-19T02:30:16.686Z,27.95
2022-08-19T02:32:45.321Z,26.58
2022-08-19T02:35:14.612Z,21.55
2022-08-19T02:38:01.405Z,24.58
2022-08-19T02:40:29.863Z,25.83
2022-08-19T02:42:59.224Z,23.05
2022-08-19T02:45:27.248Z,24.80
2022-08-19T02:47:55.659Z,25.15
2022-08-19T02:50:24.728Z,25.10
2022-08-19T02:52:52.886Z,25.23
2022-08-19T02:55:21.830Z,27.33
2022-08-19T02:57:50.034Z,25.73
2022-08-19T03:00:22.560Z,26.08
2022-08-19T03:02:50.983Z,25.60
2022-08-19T03:05:19.287Z,26.73
2022-08-19T03:08:07.828Z,28.98
2022-08-19T03:10:41.544Z,29.45
2022-08-19T03:13:09.809Z,25.55
2022-08-19T03:15:41.594Z,25.27
2022-08-19T03:18:09.911Z,28.20
2022-08-19T03:20:43.160Z,26.63
2022-08-19T03:23:11.415Z,24.70
2022-08-19T03:25:41.489Z,27.98
2022-08-19T03:28:09.354Z,26.73
2022-08-19T03:30:37.248Z,27.35
2022-08-19T03:33:18.031Z,26.70
2022-08-19T03:35:46.228Z,26.50
2022-08-19T03:38:14.134Z,23.70
2022-08-19T03:40:42.041Z,24.20
2022-08-19T03:43:09.918Z,26.20
2022-08-19T03:45:37.819Z,23.42
2022-08-19T03:48:05.952Z,23.90
2022-08-19T03:50:35.150Z,26.05
2022-08-19T03:53:03.101Z,23.83
2022-08-19T03:55:31.348Z,23.73
2022-08-19T03:57:59.517Z,22.83
2022-08-19T04:00:27.478Z,24.50
2022-08-19T04:02:58.498Z,26.48
2022-08-19T04:05:29.591Z,25.42
2022-08-19T04:08:00.186Z,26.80
2022-08-19T04:10:31.494Z,28.25
2022-08-19T04:12:59.479Z,23.05
2022-08-19T04:15:27.465Z,29.10
2022-08-19T04:17:55.780Z,25.05
2022-08-19T04:20:23.672Z,24.08
2022-08-19T04:22:51.642Z,24.35
2022-08-19T04:25:21.057Z,24.17
2022-08-19T04:27:49.498Z,23.65
2022-08-19T04:30:18.799Z,24.85
2022-08-19T04:32:46.759Z,23.42
2022-08-19T04:35:16.976Z,22.23
2022-08-19T04:37:47.428Z,25.55
2022-08-19T04:40:32.990Z,23.60
2022-08-19T04:43:02.957Z,24.17
2022-08-19T04:45:39.620Z,23.50
2022-08-19T04:48:26.802Z,24.85
2022-08-19T04:50:58.715Z,21.88
2022-08-19T04:53:29.775Z,26.08
2022-08-19T04:56:09.045Z,23.17
2022-08-19T04:58:39.394Z,24.95
2022-08-19T05:01:07.465Z,23.17
2022-08-19T05:03:36.161Z,24.00
2022-08-19T05:06:08.472Z,23.92
2022-08-19T05:08:40.292Z,23.20
2022-08-19T05:11:14.179Z,23.08
2022-08-19T05:13:44.381Z,21.42
2022-08-19T05:16:13.406Z,24.67
2022-08-19T05:18:59.842Z,20.67
2022-08-19T05:21:46.465Z,22.42
2022-08-19T05:24:15.617Z,19.30
2022-08-19T05:26:47.389Z,25.67
2022-08-19T05:29:19.759Z,23.55
2022-08-19T05:31:51.496Z,23.85
2022-08-19T05:34:22.694Z,22.70
2022-08-19T05:36:52.539Z,22.45
2022-08-19T05:39:22.533Z,22.60
2022-08-19T05:41:58.040Z,22.27
2022-08-19T05:44:32.383Z,22.67
2022-08-19T05:47:00.739Z,23.20
2022-08-19T05:49:29.728Z,21.25
2022-08-19T05:51:58.407Z,21.67
2022-08-19T05:54:26.624Z,20.08
2022-08-19T05:56:55.548Z,21.33
2022-08-19T05:59:24.897Z,19.63
2022-08-19T06:01:56.609Z,22.50
2022-08-19T06:04:25.488Z,20.63
2022-08-19T06:06:55.481Z,20.75
2022-08-19T06:09:24.999Z,19.20
2022-08-19T06:11:56.251Z,20.07
2022-08-19T06:14:27.721Z,21.70
2022-08-19T06:16:57.687Z,19.63
2022-08-19T06:19:26.458Z,20.50
2022-08-19T06:21:54.733Z,20.58
2022-08-19T06:24:25.856Z,23.27
2022-08-19T06:26:59.238Z,21.48
2022-08-19T06:29:30.811Z,17.67
2022-08-19T06:32:02.419Z,19.92
2022-08-19T06:34:32.083Z,20.08
2022-08-19T06:37:02.246Z,18.52
2022-08-19T06:39:32.160Z,19.70
2022-08-19T06:42:02.972Z,17.88
2022-08-19T06:44:39.508Z,18.88
2022-08-19T06:47:23.174Z,21.80
2022-08-19T06:49:54.935Z,17.05
2022-08-19T06:52:29.095Z,18.52
2022-08-19T06:54:59.745Z,18.85
2022-08-19T06:57:29.410Z,18.08
2022-08-19T06:59:57.539Z,21.00
2022-08-19T07:02:27.654Z,17.02
2022-08-19T07:04:58.330Z,16.90
2022-08-19T07:07:26.872Z,17.10
2022-08-19T07:09:59.225Z,15.65
2022-08-19T07:12:31.015Z,16.45
2022-08-19T07:14:59.851Z,19.55
2022-08-19T07:17:29.460Z,17.38
2022-08-19T07:20:05.098Z,18.58
2022-08-19T07:22:33.718Z,17.58
2022-08-19T07:25:04.755Z,18.33
2022-08-19T07:27:33.588Z,14.70
2022-08-19T07:30:02.169Z,21.25
2022-08-19T07:32:31.799Z,18.50
2022-08-19T07:35:01.825Z,16.58
2022-08-19T07:37:33.083Z,17.63
2022-08-19T07:40:02.421Z,15.35
2022-08-19T07:42:31.209Z,20.45
2022-08-19T07:44:59.627Z,18.90
2022-08-19T07:47:49.837Z,16.70
2022-08-19T07:50:20.784Z,14.40
2022-08-19T07:52:50.438Z,15.85
2022-08-19T07:55:41.495Z,18.48
2022-08-19T07:58:11.009Z,14.77
2022-08-19T08:00:39.058Z,15.38
2022-08-19T08:03:07.354Z,18.83
2022-08-19T08:06:05.688Z,15.35
2022-08-19T08:08:51.484Z,14.32
2022-08-19T08:11:22.107Z,15.50
2022-08-19T08:14:01.381Z,18.85
2022-08-19T08:16:35.725Z,15.88
2022-08-19T08:19:20.572Z,16.60
2022-08-19T08:21:55.789Z,14.80
2022-08-19T08:24:23.818Z,17.40
2022-08-19T08:26:57.772Z,16.48
2022-08-19T08:29:26.896Z,15.77
2022-08-19T08:32:03.466Z,17.38
2022-08-19T08:34:31.294Z,18.13
2022-08-19T08:37:00.519Z,22.42
2022-08-19T08:39:29.732Z,17.23
2022-08-19T08:42:09.853Z,19.05
2022-08-19T08:44:48.163Z,16.52
2022-08-19T08:47:21.034Z,14.77
2022-08-19T08:49:54.141Z,17.58
2022-08-19T08:52:32.236Z,19.98
2022-08-19T08:55:10.438Z,15.13
2022-08-19T08:57:44.768Z,17.80
2022-08-19T09:00:18.741Z,15.52
2022-08-19T09:02:50.581Z,16.00
2022-08-19T09:05:22.328Z,16.05
2022-08-19T09:08:02.710Z,21.13
2022-08-19T09:10:44.608Z,17.15
2022-08-19T09:13:25.664Z,20.02
2022-08-19T09:15:59.192Z,17.98
2022-08-19T09:18:29.763Z,18.63
2022-08-19T09:20:58.196Z,18.83
2022-08-19T09:23:27.766Z,20.15
2022-08-19T09:25:56.003Z,21.58
2022-08-19T09:28:26.912Z,20.50
2022-08-19T09:30:55.312Z,20.65
2022-08-19T09:33:23.607Z,18.88
2022-08-19T09:39:48.974Z,20.23
2022-08-19T09:42:17.829Z,21.75
2022-08-19T09:44:57.840Z,19.25
2022-08-19T10:39:07.851Z,13.85
2022-08-19T10:44:42.080Z,12.35
2022-08-19T10:53:37.412Z,14.95
2022-08-19T11:02:41.106Z,15.60
2022-08-19T11:08:23.012Z,17.00
2022-08-19T11:14:19.024Z,13.05
2022-08-19T11:26:44.666Z,17.45
2022-08-19T11:29:14.416Z,13.15
2022-08-19T11:31:44.906Z,12.23
2022-08-19T11:34:17.325Z,15.13
2022-08-19T11:36:48.572Z,13.05
2022-08-19T11:39:19.611Z,12.93
2022-08-19T11:41:47.843Z,15.35
2022-08-19T11:53:20.293Z,13.82
2022-08-19T11:55:53.517Z,12.05
2022-08-19T11:58:21.542Z,11.27
2022-08-19T12:00:49.668Z,11.77
2022-08-19T12:06:15.063Z,11.38
2022-08-19T12:08:43.294Z,12.55
2022-08-19T12:11:11.343Z,12.63
2022-08-19T12:13:40.336Z,13.82
2022-08-19T12:16:10.603Z,11.13
2022-08-19T12:27:39.962Z,13.68
2022-08-19T12:30:11.327Z,10.65
2022-08-19T12:32:39.489Z,14.68
2022-08-19T12:35:10.388Z,13.98
2022-08-19T12:37:38.511Z,14.02
2022-08-19T12:40:07.716Z,13.55
2022-08-19T12:42:37.032Z,13.70
2022-08-19T12:45:06.185Z,14.80
2022-08-19T12:47:49.529Z,13.25
2022-08-19T12:50:18.244Z,14.77
2022-08-19T12:52:46.266Z,13.85
2022-08-19T12:55:14.255Z,14.10
2022-08-19T12:57:43.445Z,15.80
2022-08-19T13:00:14.794Z,17.27
2022-08-19T13:02:46.567Z,16.80
2022-08-19T13:05:17.837Z,15.63
2022-08-19T13:07:45.875Z,11.70
2022-08-19T13:10:17.268Z,10.93
2022-08-19T13:13:19.886Z,16.83
2022-08-19T13:16:21.152Z,14.52
2022-08-19T13:18:50.361Z,15.10
2022-08-19T13:21:20.850Z,13.57
2022-08-19T13:23:52.553Z,15.23
2022-08-19T13:26:21.658Z,16.17
2022-08-19T13:29:08.981Z,16.52
2022-08-19T13:32:00.110Z,18.33
2022-08-19T13:34:32.980Z,20.48
2022-08-19T13:37:03.916Z,20.13
2022-08-19T13:39:33.306Z,25.08
2022-08-19T13:42:02.167Z,18.23
2022-08-19T13:44:31.722Z,24.77
2022-08-19T13:47:06.675Z,23.33
2022-08-19T13:49:36.905Z,23.13
2022-08-19T13:52:06.600Z,21.25
2022-08-19T13:54:34.614Z,29.77
2022-08-19T13:57:02.530Z,39.90
2022-08-19T13:59:31.872Z,21.48
2022-08-19T14:02:00.844Z,21.38
2022-08-19T14:04:29.004Z,22.42
2022-08-19T14:06:57.040Z,22.25
2022-08-19T14:09:24.989Z,24.38
2022-08-19T14:11:52.887Z,21.33
2022-08-19T14:14:20.838Z,21.17
2022-08-19T14:16:50.253Z,20.50
2022-08-19T14:19:18.424Z,19.40
2022-08-19T14:21:46.503Z,19.77
2022-08-19T14:24:14.380Z,19.02
2022-08-19T14:26:42.278Z,18.65
2022-08-19T14:29:11.064Z,19.85
2022-08-19T14:31:41.497Z,18.38
2022-08-19T14:36:39.470Z,20.70
2022-08-19T14:39:07.403Z,19.45
2022-08-19T14:41:35.536Z,17.23
2022-08-19T14:44:03.567Z,19.30
2022-08-19T14:46:31.683Z,20.42
2022-08-19T14:49:00.374Z,20.38
2022-08-19T14:51:29.782Z,14.65
2022-08-19T14:53:57.889Z,15.27
2022-08-19T14:56:28.333Z,19.48
2022-08-19T15:01:27.466Z,20.13
2022-08-19T15:04:04.819Z,16.58
2022-08-19T15:06:34.389Z,15.77
2022-08-19T15:09:04.573Z,15.17
2022-08-19T15:11:33.765Z,15.30
2022-08-19T15:14:02.380Z,13.98
2022-08-19T15:16:30.553Z,14.55
2022-08-19T15:19:00.739Z,12.85
2022-08-19T15:21:30.381Z,16.25
2022-08-19T15:24:00.299Z,14.10
2022-08-19T15:26:29.067Z,14.10
2022-08-19T15:28:57.151Z,15.88
2022-08-19T15:31:28.691Z,14.18
2022-08-19T15:33:58.431Z,15.43
2022-08-19T15:36:27.283Z,14.88
2022-08-19T15:38:56.037Z,13.82
2022-08-19T15:41:28.061Z,16.70
2022-08-19T15:43:58.738Z,12.93
2022-08-19T15:46:31.051Z,13.23
2022-08-19T15:49:00.191Z,14.60
2022-08-19T15:51:30.409Z,13.53
2022-08-19T15:53:59.128Z,12.88
2022-08-19T15:56:57.862Z,13.70
2022-08-19T15:59:47.464Z,14.40
2022-08-19T16:02:37.022Z,20.52
2022-08-19T16:05:26.665Z,14.30
2022-08-19T16:07:55.406Z,13.20
2022-08-19T16:10:27.336Z,11.05
2022-08-19T16:12:59.633Z,10.23
2022-08-19T16:15:28.911Z,9.73
2022-08-19T16:17:58.066Z,12.40
2022-08-19T16:20:28.036Z,11.80
2022-08-19T16:22:57.591Z,10.68
2022-08-19T16:25:29.218Z,13.03
2022-08-19T16:28:06.269Z,13.43
2022-08-19T16:30:34.912Z,11.35
2022-08-19T16:33:02.866Z,14.15
2022-08-19T16:35:31.071Z,11.20
2022-08-19T16:37:59.139Z,9.73
2022-08-19T16:40:27.465Z,9.93
2022-08-19T16:42:55.539Z,9.88
2022-08-19T16:45:25.003Z,12.48
2022-08-19T16:47:53.015Z,11.20
2022-08-19T16:50:33.575Z,10.70
2022-08-19T16:53:10.430Z,8.88
2022-08-19T16:55:38.792Z,10.65
2022-08-19T16:58:06.676Z,11.45
2022-08-19T17:00:35.943Z,10.38
2022-08-19T17:03:08.661Z,8.88
2022-08-19T17:05:43.627Z,13.32
2022-08-19T17:08:11.585Z,11.88
2022-08-19T17:10:40.030Z,7.93
2022-08-19T17:13:08.478Z,9.23
2022-08-19T17:15:38.210Z,10.63
2022-08-19T17:18:09.076Z,10.10
2022-08-19T17:20:38.336Z,10.48
2022-08-19T17:23:06.436Z,11.77
2022-08-19T17:25:35.022Z,11.98
2022-08-19T17:28:08.395Z,9.20
2022-08-19T17:30:37.754Z,12.93
2022-08-19T17:33:06.501Z,10.65
2022-08-19T17:35:35.792Z,9.23
2022-08-19T17:38:04.991Z,11.77
2022-08-19T17:40:33.466Z,10.38
2022-08-19T17:43:01.787Z,16.98
2022-08-19T17:45:30.175Z,11.55
2022-08-19T17:48:00.823Z,9.88
2022-08-19T17:50:29.269Z,8.57
2022-08-19T17:52:57.164Z,10.82
2022-08-19T17:55:25.780Z,10.07
2022-08-19T17:57:53.951Z,11.73
2022-08-19T18:00:23.094Z,9.88
2022-08-19T18:02:54.770Z,8.32
2022-08-19T18:07:54.408Z,10.77
2022-08-19T18:10:23.996Z,9.88
2022-08-19T18:13:03.146Z,8.07
2022-08-19T18:15:45.855Z,9.18
2022-08-19T18:18:15.070Z,10.10
2022-08-19T18:20:45.363Z,10.00
2022-08-19T18:23:45.045Z,10.70
2022-08-19T18:26:01.187Z,9.75
2022-08-19T18:28:29.313Z,10.00
2022-08-19T18:30:57.437Z,7.80
2022-08-19T18:33:25.764Z,12.02
2022-08-19T18:35:55.057Z,8.68
2022-08-19T18:38:41.268Z,8.57
2022-08-19T18:41:27.610Z,6.47
2022-08-19T18:44:12.924Z,9.32
2022-08-19T18:46:58.176Z,7.70
2022-08-19T18:49:28.415Z,7.82
2022-08-19T18:51:59.462Z,6.65
2022-08-19T18:54:29.393Z,9.23
2022-08-19T18:56:57.356Z,9.90
2022-08-19T18:59:26.822Z,8.45
2022-08-19T19:01:57.407Z,9.13
2022-08-19T19:04:27.706Z,7.65
2022-08-19T19:06:57.990Z,5.97
2022-08-19T19:09:27.157Z,10.20
2022-08-19T19:11:58.053Z,9.35
2022-08-19T19:14:48.263Z,8.65
2022-08-19T19:17:17.303Z,8.63
2022-08-19T19:19:45.771Z,7.80
2022-08-19T19:22:18.825Z,15.80
2022-08-19T19:24:47.180Z,12.88
2022-08-19T19:27:18.703Z,10.85
2022-08-19T19:29:51.514Z,12.30
2022-08-19T19:32:23.104Z,12.98
2022-08-19T19:34:51.494Z,11.20
2022-08-19T19:37:22.473Z,12.85
2022-08-19T19:39:50.455Z,9.30
2022-08-19T19:42:21.765Z,9.00
2022-08-19T19:44:51.293Z,9.25
2022-08-19T19:47:19.700Z,11.80
2022-08-19T19:52:41.563Z,14.27
2022-08-19T19:55:18.251Z,10.27
2022-08-19T19:57:46.829Z,13.00
2022-08-19T20:00:18.367Z,10.15
2022-08-19T20:02:49.857Z,11.30
2022-08-19T20:05:21.296Z,11.52
2022-08-19T20:08:10.358Z,10.55
2022-08-19T20:10:39.179Z,10.40
2022-08-19T20:13:08.360Z,10.45
2022-08-19T20:15:42.133Z,11.00
2022-08-19T20:18:10.867Z,12.50
2022-08-19T20:20:38.744Z,10.20
2022-08-19T20:23:08.413Z,10.20
2022-08-19T20:25:38.378Z,11.73
2022-08-19T20:28:06.283Z,9.75
2022-08-19T20:30:34.329Z,13.27
2022-08-19T20:33:06.795Z,9.65
2022-08-19T20:35:36.504Z,11.15
2022-08-19T20:38:06.471Z,11.80
2022-08-19T20:40:37.970Z,9.27
2022-08-19T20:43:09.008Z,11.00
2022-08-19T20:45:37.474Z,9.55
2022-08-19T20:48:08.103Z,9.00
2022-08-19T20:50:37.534Z,12.45
2022-08-19T20:53:12.258Z,10.55
2022-08-19T20:55:44.829Z,11.43
2022-08-19T20:58:13.580Z,10.48
2022-08-19T21:00:45.930Z,11.40
2022-08-19T21:03:17.174Z,11.68
2022-08-19T21:05:46.972Z,11.48
2022-08-19T21:08:15.630Z,14.85
2022-08-19T21:10:45.369Z,10.43
2022-08-19T21:13:13.811Z,10.93
2022-08-19T21:15:43.373Z,12.95
2022-08-19T21:18:12.652Z,12.77
2022-08-19T21:20:42.058Z,14.10
2022-08-19T21:23:12.725Z,12.98
2022-08-19T21:25:41.426Z,10.07
2022-08-19T21:28:35.618Z,11.05
2022-08-19T21:31:06.766Z,11.40
2022-08-19T21:33:34.934Z,11.70
2022-08-19T21:36:03.614Z,13.55
2022-08-19T21:38:32.191Z,10.38
2022-08-19T21:41:05.811Z,11.27
2022-08-19T21:43:37.762Z,14.32
2022-08-19T21:46:06.508Z,12.07
2022-08-19T21:48:34.525Z,10.02
2022-08-19T21:51:02.467Z,11.88
2022-08-19T21:53:31.684Z,16.55
2022-08-19T21:56:02.787Z,11.20
2022-08-19T21:58:31.009Z,14.13
2022-08-19T22:01:01.742Z,12.27
2022-08-19T22:03:30.954Z,11.20
2022-08-19T22:05:59.691Z,15.60
2022-08-19T22:08:28.078Z,13.93
2022-08-19T22:10:56.249Z,17.63
2022-08-19T22:13:24.918Z,13.82
2022-08-19T22:15:53.001Z,14.82
2022-08-19T22:18:22.543Z,13.25
2022-08-19T22:20:50.571Z,11.77
2022-08-19T22:23:18.628Z,14.55
2022-08-19T22:25:48.246Z,14.80
2022-08-19T22:28:28.122Z,13.70
2022-08-19T22:30:56.924Z,13.38
2022-08-19T22:33:27.784Z,13.80
2022-08-19T22:35:55.946Z,17.13
2022-08-19T22:38:24.583Z,17.45
2022-08-19T22:40:53.724Z,13.95
2022-08-19T22:43:24.183Z,14.68
2022-08-19T22:48:25.764Z,13.82
2022-08-19T22:51:13.565Z,16.95
2022-08-19T22:53:43.746Z,18.13
2022-08-19T22:56:15.317Z,16.63
2022-08-19T22:58:44.152Z,16.92
2022-08-19T23:01:24.849Z,15.65
2022-08-19T23:03:58.698Z,17.95
2022-08-19T23:06:33.799Z,16.35
2022-08-19T23:09:04.751Z,18.15
2022-08-19T23:14:07.012Z,14.90
2022-08-19T23:16:39.476Z,17.13
2022-08-19T23:19:10.863Z,17.13
2022-08-19T23:21:40.468Z,18.05
2022-08-19T23:24:08.778Z,19.70
2022-08-19T23:26:37.068Z,20.67
2022-08-19T23:29:23.962Z,18.35
2022-08-19T23:31:51.887Z,17.23
2022-08-19T23:34:19.908Z,16.05
2022-08-19T23:36:50.401Z,19.50
2022-08-19T23:41:47.300Z,18.73
2022-08-19T23:44:15.545Z,18.40
2022-08-19T23:46:55.127Z,20.67
2022-08-19T23:49:25.575Z,21.10
2022-08-19T23:51:56.585Z,18.92
2022-08-19T23:54:34.337Z,19.63
2022-08-19T23:57:13.799Z,26.80
2022-08-19T23:59:45.271Z,21.42
